Time;durP1;ratioP1;P1;durP2;ratioP2;P2;SDS_P1;SDS_P2;PMS_P1;PMS_P2;Temp;Humidity;BMP_temperature;BMP_pressure;BME280_temperature;BME280_humidity;BME280_pressure;Samples;Min_cycle;Max_cycle;Signal;HPM_P1;HPM_P2
2023/12/13 00:01:54;;;;;;;0.30;0.30;;;;;;;18.10;57.29;99667.13;5070159;28;20048;-70
2023/12/13 00:04:19;;;;;;;0.30;0.30;;;;;;;17.82;58.38;99660.88;5091483;28;20127;-70
2023/12/13 00:06:44;;;;;;;0.20;0.20;;;;;;;18.01;57.22;99663.47;5091389;28;20028;-71
2023/12/13 00:09:10;;;;;;;0.30;0.30;;;;;;;17.56;58.94;99659.72;5092308;28;20035;-70
2023/12/13 00:11:36;;;;;;;0.20;0.20;;;;;;;17.91;57.61;99666.38;5091927;28;20048;-70
2023/12/13 00:14:01;;;;;;;0.22;0.22;;;;;;;18.16;57.01;99653.09;5091908;28;20127;-70
2023/12/13 00:16:27;;;;;;;0.20;0.20;;;;;;;18.24;56.63;99655.09;5079763;28;20431;-71
2023/12/13 00:18:52;;;;;;;0.30;0.30;;;;;;;18.21;56.52;99654.91;5071829;28;20033;-70
2023/12/13 00:21:18;;;;;;;0.28;0.28;;;;;;;18.18;56.48;99650.88;5072499;28;20028;-70
2023/12/13 00:23:46;;;;;;;0.35;0.35;;;;;;;18.13;56.09;99650.19;5071736;28;20043;-70
2023/12/13 00:26:16;;;;;;;0.30;0.30;;;;;;;18.13;56.45;99653.72;5071446;28;20059;-71
2023/12/13 00:28:41;;;;;;;0.30;0.30;;;;;;;17.93;57.25;99654.13;5071287;28;20036;-71
2023/12/13 00:31:07;;;;;;;0.13;0.13;;;;;;;18.00;57.04;99651.00;5071584;28;20101;-70
2023/12/13 00:33:33;;;;;;;0.22;0.22;;;;;;;18.02;56.91;99641.44;5072096;28;20516;-70
2023/12/13 00:35:58;;;;;;;0.30;0.30;;;;;;;17.99;57.03;99646.66;5071356;28;20414;-70
2023/12/13 00:38:24;;;;;;;0.30;0.30;;;;;;;18.08;56.48;99637.47;5071300;28;20531;-71
2023/12/13 00:40:50;;;;;;;0.30;0.30;;;;;;;17.75;57.68;99635.19;5070996;28;20484;-70
2023/12/13 00:43:15;;;;;;;0.10;0.10;;;;;;;17.86;57.47;99642.84;5071201;28;20040;-70
2023/12/13 00:45:41;;;;;;;0.30;0.30;;;;;;;17.95;56.87;99642.94;5071777;28;20116;-70
2023/12/13 00:48:06;;;;;;;0.20;0.20;;;;;;;17.93;56.82;99648.69;5071303;28;20036;-70
2023/12/13 00:50:32;;;;;;;0.20;0.20;;;;;;;18.11;56.48;99642.34;5068270;28;20086;-71
2023/12/13 00:52:57;;;;;;;0.20;0.20;;;;;;;18.00;56.58;99651.81;5070816;28;20066;-70
2023/12/13 00:55:23;;;;;;;0.40;0.40;;;;;;;18.07;56.44;99643.22;5071161;28;20040;-71
2023/12/13 00:57:48;;;;;;;0.28;0.28;;;;;;;17.68;57.45;99641.03;5070931;28;20054;-70
2023/12/13 01:00:14;;;;;;;0.40;0.40;;;;;;;17.91;56.94;99645.47;5071477;28;20096;-70
2023/12/13 01:02:40;;;;;;;0.30;0.30;;;;;;;17.74;57.35;99647.16;5086244;28;20039;-70
2023/12/13 01:05:06;;;;;;;0.30;0.30;;;;;;;17.88;56.98;99653.41;5090900;28;20044;-70
2023/12/13 01:07:32;;;;;;;0.22;0.22;;;;;;;17.73;57.27;99648.28;5091049;28;20035;-70
2023/12/13 01:09:57;;;;;;;0.20;0.20;;;;;;;17.94;56.66;99650.31;5090832;28;20096;-70
2023/12/13 01:12:22;;;;;;;0.30;0.30;;;;;;;17.88;56.31;99654.22;5091227;28;20498;-71
2023/12/13 01:14:48;;;;;;;0.20;0.20;;;;;;;17.88;56.95;99653.41;5090713;28;20097;-70
2023/12/13 01:17:13;;;;;;;0.40;0.40;;;;;;;17.87;56.71;99647.16;5072021;28;20119;-71
2023/12/13 01:19:39;;;;;;;0.20;0.20;;;;;;;17.76;56.59;99645.75;5070653;28;20040;-70
2023/12/13 01:22:04;;;;;;;0.30;0.30;;;;;;;17.86;56.57;99645.56;5068878;28;20043;-70
2023/12/13 01:24:30;;;;;;;0.28;0.28;;;;;;;17.62;56.72;99650.38;5069269;28;20124;-71
2023/12/13 01:26:55;;;;;;;0.28;0.28;;;;;;;17.75;56.55;99649.56;5069894;28;20036;-69
2023/12/13 01:29:21;;;;;;;0.22;0.22;;;;;;;17.78;56.95;99659.84;5070382;28;20423;-70
2023/12/13 01:31:46;;;;;;;0.25;0.25;;;;;;;17.74;56.40;99666.19;5070570;28;20032;-69
2023/12/13 01:34:11;;;;;;;0.30;0.30;;;;;;;17.56;57.26;99654.28;5070295;28;20040;-71
2023/12/13 01:36:41;;;;;;;0.50;0.50;;;;;;;17.64;56.66;99652.78;5070548;28;20035;-70
2023/12/13 01:39:07;;;;;;;0.25;0.25;;;;;;;17.58;56.75;99656.69;5070267;28;20058;-70
2023/12/13 01:41:33;;;;;;;0.40;0.40;;;;;;;17.61;56.87;99651.47;5070299;28;20128;-71
2023/12/13 01:43:58;;;;;;;0.30;0.30;;;;;;;17.61;56.60;99659.63;5070190;28;20125;-71
2023/12/13 01:46:24;;;;;;;0.20;0.20;;;;;;;17.43;57.71;99655.84;5070195;28;20067;-71
2023/12/13 01:48:50;;;;;;;0.28;0.28;;;;;;;17.52;57.40;99659.53;5070100;28;20091;-70
2023/12/13 01:51:15;;;;;;;0.30;0.30;;;;;;;17.24;58.36;99665.13;5070924;28;20059;-70
2023/12/13 01:53:42;;;;;;;0.40;0.40;;;;;;;17.10;59.10;99658.88;5070076;28;20485;-69
2023/12/13 01:56:11;;;;;;;0.30;0.30;;;;;;;17.42;58.05;99658.84;5070140;28;20055;-70
2023/12/13 01:58:38;;;;;;;0.20;0.20;;;;;;;17.59;57.42;99661.03;5070339;28;20512;-70
2023/12/13 02:01:04;;;;;;;0.32;0.32;;;;;;;17.58;57.17;99660.22;5072279;28;20040;-71
2023/12/13 02:03:30;;;;;;;0.20;0.20;;;;;;;17.22;58.33;99662.72;5090854;28;20089;-71
2023/12/13 02:05:56;;;;;;;0.30;0.30;;;;;;;17.68;57.45;99664.66;5090199;28;20040;-71
2023/12/13 02:08:22;;;;;;;0.17;0.17;;;;;;;17.68;56.82;99662.75;5090184;28;20039;-71
2023/12/13 02:10:49;;;;;;;0.20;0.20;;;;;;;17.77;56.75;99657.44;5072246;28;20040;-70
2023/12/13 02:13:15;;;;;;;0.30;0.30;;;;;;;17.68;56.47;99667.38;5079169;28;20139;-71
2023/12/13 02:15:42;;;;;;;0.32;0.32;;;;;;;17.54;57.48;99667.38;5076019;28;20102;-70
2023/12/13 02:18:09;;;;;;;0.22;0.22;;;;;;;17.54;57.62;99667.38;5090586;28;20044;-70
2023/12/13 02:20:34;;;;;;;0.28;0.28;;;;;;;17.81;56.79;99669.31;5086987;28;20560;-70
2023/12/13 02:23:00;;;;;;;0.20;0.20;;;;;;;17.73;56.96;99665.38;5069951;28;20119;-71
2023/12/13 02:25:35;;;;;;;0.30;0.30;;;;;;;17.84;57.00;99657.84;5069955;28;20120;-71
2023/12/13 02:28:01;;;;;;;0.20;0.20;;;;;;;17.65;56.90;99659.84;5070057;28;20081;-70
2023/12/13 02:30:28;;;;;;;0.20;0.20;;;;;;;17.61;57.26;99656.91;5070373;28;20039;-69
2023/12/13 02:32:54;;;;;;;0.20;0.20;;;;;;;17.80;56.81;99656.84;5069575;28;20044;-70
2023/12/13 02:35:20;;;;;;;0.13;0.13;;;;;;;17.64;57.44;99658.22;5069884;28;20048;-69
2023/12/13 02:37:48;;;;;;;0.30;0.30;;;;;;;17.70;57.26;99660.56;5069763;28;20074;-70
2023/12/13 02:40:14;;;;;;;0.40;0.40;;;;;;;17.78;57.02;99659.84;5073712;28;20044;-70
2023/12/13 02:42:39;;;;;;;0.40;0.40;;;;;;;17.76;56.94;99653.09;5074163;28;20104;-70
2023/12/13 02:45:08;;;;;;;0.10;0.10;;;;;;;17.80;56.88;99656.84;5073544;28;20506;-69
2023/12/13 02:47:34;;;;;;;0.20;0.20;;;;;;;17.61;57.34;99656.91;5073493;28;20048;-71
2023/12/13 02:49:59;;;;;;;0.30;0.30;;;;;;;17.70;57.58;99659.75;5073273;28;20037;-70
2023/12/13 02:52:24;;;;;;;0.40;0.40;;;;;;;17.96;56.31;99652.72;5073143;28;20154;-68
2023/12/13 02:54:50;;;;;;;0.28;0.28;;;;;;;17.85;57.00;99654.00;5073141;28;20134;-71
2023/12/13 02:57:15;;;;;;;0.40;0.40;;;;;;;17.95;56.73;99653.81;5073589;28;20067;-71
2023/12/13 02:59:40;;;;;;;0.28;0.28;;;;;;;17.93;56.59;99653.31;5073052;28;20430;-70
2023/12/13 03:02:06;;;;;;;0.20;0.20;;;;;;;17.75;56.92;99665.88;5084031;28;20048;-70
2023/12/13 03:04:32;;;;;;;0.20;0.20;;;;;;;17.65;57.63;99655.19;5093177;28;20111;-70
2023/12/13 03:06:57;;;;;;;0.40;0.40;;;;;;;17.50;58.17;99655.47;5093193;28;20111;-70
2023/12/13 03:09:22;;;;;;;0.30;0.30;;;;;;;17.90;56.53;99649.28;5093480;28;20035;-69
2023/12/13 03:11:48;;;;;;;0.22;0.22;;;;;;;17.72;57.63;99650.19;5093226;28;20082;-71
2023/12/13 03:14:13;;;;;;;0.20;0.20;;;;;;;17.92;56.98;99644.38;5092957;28;20139;-70
2023/12/13 03:16:38;;;;;;;0.22;0.22;;;;;;;17.83;56.79;99648.06;5079108;28;20127;-71
2023/12/13 03:19:04;;;;;;;0.30;0.30;;;;;;;17.91;56.78;99647.34;5072680;28;20119;-70
2023/12/13 03:21:29;;;;;;;0.30;0.30;;;;;;;17.98;56.55;99642.34;5073279;28;20181;-71
2023/12/13 03:23:55;;;;;;;0.30;0.30;;;;;;;17.81;56.92;99650.31;5072781;28;20441;-70
2023/12/13 03:26:20;;;;;;;0.22;0.22;;;;;;;17.74;57.47;99637.09;5072883;28;20544;-70
2023/12/13 03:28:45;;;;;;;0.32;0.32;;;;;;;17.90;56.68;99634.91;5072139;28;20044;-69
2023/12/13 03:31:11;;;;;;;0.30;0.30;;;;;;;17.91;56.62;99634.59;5072390;28;20032;-70
2023/12/13 03:33:36;;;;;;;0.35;0.35;;;;;;;17.82;57.27;99635.59;5072794;28;20387;-70
2023/12/13 03:36:01;;;;;;;0.20;0.20;;;;;;;17.89;56.54;99636.78;5072441;28;20127;-69
2023/12/13 03:38:27;;;;;;;0.20;0.20;;;;;;;18.00;56.20;99631.97;5072760;28;20051;-70
2023/12/13 03:40:52;;;;;;;0.20;0.20;;;;;;;17.87;56.81;99632.75;5072477;28;20144;-70
2023/12/13 03:43:18;;;;;;;0.20;0.20;;;;;;;17.98;56.82;99632.28;5072319;28;20048;-70
2023/12/13 03:45:43;;;;;;;0.20;0.20;;;;;;;17.97;56.44;99630.66;5072414;28;20028;-70
2023/12/13 03:48:08;;;;;;;0.15;0.15;;;;;;;18.03;55.97;99634.06;5072623;28;20682;-71
2023/12/13 03:50:35;;;;;;;0.22;0.22;;;;;;;17.95;56.97;99632.06;5071216;28;20102;-70
2023/12/13 03:53:02;;;;;;;0.22;0.22;;;;;;;18.03;56.70;99629.44;5072027;28;20461;-70
2023/12/13 03:55:27;;;;;;;0.30;0.30;;;;;;;18.12;56.23;99630.34;5072231;28;20132;-71
2023/12/13 03:57:52;;;;;;;0.20;0.20;;;;;;;17.96;56.67;99633.69;5071935;28;20121;-71
2023/12/13 04:00:18;;;;;;;0.20;0.20;;;;;;;18.03;56.63;99639.50;5072401;28;20029;-69
2023/12/13 04:02:43;;;;;;;0.22;0.22;;;;;;;17.96;56.60;99633.69;5088112;28;20093;-70
2023/12/13 04:05:09;;;;;;;0.17;0.17;;;;;;;18.03;56.56;99631.34;5091923;28;20108;-70
2023/12/13 04:07:34;;;;;;;0.20;0.20;;;;;;;18.06;56.24;99636.19;5092128;28;20059;-69
2023/12/13 04:09:59;;;;;;;0.30;0.30;;;;;;;18.03;56.40;99634.06;5091855;28;20517;-69
2023/12/13 04:12:40;;;;;;;0.20;0.20;;;;;;;18.11;56.27;99634.19;5092440;28;20082;-70
2023/12/13 04:15:06;;;;;;;0.35;0.35;;;;;;;18.00;56.92;99630.06;5070011;28;20059;-70
2023/12/13 04:17:31;;;;;;;0.20;0.20;;;;;;;17.80;57.28;99638.63;5065952;28;20580;-70
2023/12/13 04:19:58;;;;;;;0.10;0.10;;;;;;;17.75;57.52;99640.63;5071321;28;20053;-70
2023/12/13 04:22:23;;;;;;;0.20;0.20;;;;;;;17.87;56.87;99639.00;5071639;28;20071;-70
2023/12/13 04:24:49;;;;;;;0.28;0.28;;;;;;;17.95;56.38;99638.31;5071257;28;20520;-70
2023/12/13 04:27:14;;;;;;;0.20;0.20;;;;;;;18.03;56.69;99643.03;5072085;28;20028;-69
2023/12/13 04:29:39;;;;;;;0.10;0.10;;;;;;;17.69;57.84;99633.69;5071329;28;20443;-69
2023/12/13 04:32:05;;;;;;;0.40;0.40;;;;;;;18.03;56.54;99629.44;5071448;28;20104;-70
2023/12/13 04:34:30;;;;;;;0.20;0.20;;;;;;;17.86;57.21;99633.88;5071458;28;20122;-70
2023/12/13 04:36:56;;;;;;;0.30;0.30;;;;;;;18.05;56.24;99624.50;5071224;28;20124;-69
2023/12/13 04:39:21;;;;;;;0.30;0.30;;;;;;;18.00;56.25;99626.53;5071891;28;20031;-70
2023/12/13 04:41:46;;;;;;;0.10;0.10;;;;;;;17.99;56.82;99627.63;5071289;28;20075;-70
2023/12/13 04:44:12;;;;;;;0.30;0.30;;;;;;;17.66;56.99;99624.22;5071251;28;20127;-70
2023/12/13 04:46:39;;;;;;;0.10;0.10;;;;;;;17.69;57.34;99623.59;5071123;28;20037;-70
2023/12/13 04:49:04;;;;;;;0.20;0.20;;;;;;;17.86;56.75;99628.44;5070981;28;20101;-70
2023/12/13 04:51:30;;;;;;;0.30;0.30;;;;;;;17.99;56.24;99631.16;5071583;28;20075;-70
2023/12/13 04:53:55;;;;;;;0.30;0.30;;;;;;;17.96;56.72;99630.97;5070729;28;20092;-71
2023/12/13 04:56:20;;;;;;;0.20;0.20;;;;;;;17.84;57.11;99626.03;5070724;28;20044;-69
2023/12/13 04:58:46;;;;;;;0.30;0.30;;;;;;;18.00;56.69;99631.97;5070810;28;20048;-70
2023/12/13 05:01:11;;;;;;;0.30;0.30;;;;;;;17.97;56.62;99632.56;5068320;28;20036;-70
2023/12/13 05:03:37;;;;;;;0.30;0.30;;;;;;;18.06;56.04;99628.81;5070851;28;20104;-72
2023/12/13 05:06:02;;;;;;;0.50;0.50;;;;;;;18.13;56.44;99637.41;5070084;28;20044;-70
2023/12/13 05:08:29;;;;;;;0.20;0.20;;;;;;;18.09;56.43;99630.13;5070158;28;20373;-70
2023/12/13 05:10:54;;;;;;;0.30;0.30;;;;;;;17.99;56.69;99625.72;5070058;28;20032;-71
2023/12/13 05:13:19;;;;;;;0.30;0.30;;;;;;;17.97;56.78;99627.13;5070034;28;20085;-70
2023/12/13 05:15:45;;;;;;;0.10;0.10;;;;;;;18.00;56.47;99626.53;5070123;28;20032;-69
2023/12/13 05:18:10;;;;;;;0.30;0.30;;;;;;;17.87;57.29;99630.84;5051995;28;20431;-70
2023/12/13 05:20:35;;;;;;;0.20;0.20;;;;;;;17.97;56.72;99629.84;5070189;28;20443;-70
2023/12/13 05:23:01;;;;;;;0.20;0.20;;;;;;;18.03;56.18;99628.63;5070452;28;20609;-71
2023/12/13 05:25:26;;;;;;;0.35;0.35;;;;;;;17.81;57.38;99636.72;5070623;28;20116;-70
2023/12/13 05:27:51;;;;;;;0.20;0.20;;;;;;;17.90;56.82;99630.28;5070427;28;20474;-70
2023/12/13 05:30:18;;;;;;;0.20;0.20;;;;;;;17.89;56.77;99628.66;5070710;28;20595;-71
2023/12/13 05:32:43;;;;;;;0.30;0.30;;;;;;;17.79;57.41;99631.56;5070418;28;20032;-70
2023/12/13 05:35:09;;;;;;;0.20;0.20;;;;;;;17.90;56.41;99632.19;5070198;28;20434;-69
2023/12/13 05:37:34;;;;;;;0.17;0.17;;;;;;;18.33;55.05;99636.16;5070370;28;20412;-71
2023/12/13 05:39:59;;;;;;;0.20;0.20;;;;;;;18.37;55.18;99627.09;5070228;28;20048;-70
2023/12/13 05:42:25;;;;;;;0.20;0.20;;;;;;;18.61;54.52;99628.75;5071020;28;20817;-69
2023/12/13 05:44:50;;;;;;;0.20;0.20;;;;;;;18.55;54.60;99646.31;5070073;28;20387;-71
2023/12/13 05:47:16;;;;;;;0.20;0.20;;;;;;;18.45;54.49;99639.19;5070331;28;20049;-70
2023/12/13 05:49:41;;;;;;;0.15;0.15;;;;;;;18.56;54.48;99634.31;5068049;28;20044;-69
2023/12/13 05:52:06;;;;;;;0.22;0.22;;;;;;;18.49;54.80;99642.91;5076201;28;20040;-70
2023/12/13 05:54:33;;;;;;;0.25;0.25;;;;;;;18.57;54.93;99642.19;5063477;28;20040;-72
2023/12/13 05:56:59;;;;;;;0.30;0.30;;;;;;;18.55;54.53;99638.16;5069665;28;20032;-71
2023/12/13 05:59:24;;;;;;;0.20;0.20;;;;;;;18.26;55.41;99638.47;5069505;28;20353;-71
2023/12/13 06:01:49;;;;;;;0.20;0.20;;;;;;;18.52;54.21;99634.13;5069163;28;20043;-71
2023/12/13 06:04:15;;;;;;;0.20;0.20;;;;;;;18.40;55.17;99639.25;5066722;28;20116;-70
2023/12/13 06:06:46;;;;;;;0.20;0.20;;;;;;;18.58;54.56;99642.97;5065631;28;20036;-71
2023/12/13 06:09:12;;;;;;;0.28;0.28;;;;;;;18.40;54.31;99633.81;5079032;28;20464;-71
2023/12/13 06:11:38;;;;;;;0.20;0.20;;;;;;;18.54;54.25;99636.53;5070859;28;20123;-71
2023/12/13 06:14:03;;;;;;;0.10;0.10;;;;;;;18.52;54.61;99636.84;5070615;28;20124;-69
2023/12/13 06:16:29;;;;;;;0.40;0.40;;;;;;;18.45;55.19;99635.66;5060823;28;20125;-69
2023/12/13 06:18:54;;;;;;;0.30;0.30;;;;;;;18.61;54.38;99634.22;5053723;28;20571;-69
2023/12/13 06:21:19;;;;;;;0.20;0.20;;;;;;;18.18;54.62;99631.84;5054172;28;20025;-70
2023/12/13 06:23:45;;;;;;;0.20;0.20;;;;;;;18.42;54.61;99634.31;5053768;28;20087;-70
2023/12/13 06:26:10;;;;;;;0.20;0.20;;;;;;;18.44;54.56;99640.28;5053549;28;20032;-69
2023/12/13 06:28:36;;;;;;;0.28;0.28;;;;;;;18.64;54.04;99636.31;5053455;28;20502;-70
2023/12/13 06:31:01;;;;;;;0.30;0.30;;;;;;;18.60;54.24;99644.28;5053556;28;20029;-71
2023/12/13 06:33:27;;;;;;;0.30;0.30;;;;;;;18.64;54.18;99639.03;5054111;28;20063;-70
2023/12/13 06:35:53;;;;;;;0.20;0.20;;;;;;;18.72;54.04;99635.56;5053510;28;20082;-70
2023/12/13 06:38:18;;;;;;;0.30;0.30;;;;;;;18.62;53.94;99641.25;5053433;28;20048;-70
2023/12/13 06:40:44;;;;;;;0.30;0.30;;;;;;;18.67;53.78;99641.16;5067761;28;20036;-70
2023/12/13 06:43:09;;;;;;;0.38;0.38;;;;;;;18.58;53.75;99646.50;5082629;28;20063;-71
2023/12/13 06:45:35;;;;;;;0.30;0.30;;;;;;;18.66;54.15;99643.06;5081653;28;20485;-69
2023/12/13 06:48:00;;;;;;;0.30;0.30;;;;;;;18.71;54.02;99644.88;5077725;28;20036;-71
2023/12/13 06:50:25;;;;;;;0.13;0.13;;;;;;;18.53;54.18;99649.34;5083751;28;20044;-70
2023/12/13 06:52:51;;;;;;;0.30;0.30;;;;;;;18.70;54.30;99649.50;5081087;28;20043;-70
2023/12/13 06:55:18;;;;;;;0.40;0.40;;;;;;;18.53;54.27;99648.53;5072767;28;20170;-69
2023/12/13 06:57:44;;;;;;;0.20;0.20;;;;;;;18.55;54.27;99651.75;5082067;28;20107;-68
2023/12/13 07:00:10;;;;;;;0.30;0.30;;;;;;;18.64;53.99;99650.72;5084635;28;20101;-70
2023/12/13 07:02:36;;;;;;;0.30;0.30;;;;;;;18.50;54.40;99655.38;5079700;28;20056;-69
2023/12/13 07:05:01;;;;;;;0.20;0.20;;;;;;;18.64;54.01;99660.78;5092072;28;20081;-71
2023/12/13 07:07:27;;;;;;;0.35;0.35;;;;;;;18.80;53.44;99660.16;5080195;28;20063;-70
2023/12/13 07:09:53;;;;;;;0.30;0.30;;;;;;;18.77;53.44;99655.31;5073106;28;20020;-70
2023/12/13 07:12:20;;;;;;;0.20;0.20;;;;;;;18.65;53.54;99655.06;5049365;28;20032;-70
2023/12/13 07:14:45;;;;;;;0.32;0.32;;;;;;;18.51;53.94;99661.66;5071277;28;20514;-70
2023/12/13 07:17:11;;;;;;;0.20;0.20;;;;;;;18.61;53.89;99659.50;5052921;28;20112;-70
2023/12/13 07:19:36;;;;;;;0.30;0.30;;;;;;;18.77;53.52;99665.41;5063935;28;20037;-67
2023/12/13 07:22:02;;;;;;;0.20;0.20;;;;;;;18.69;53.79;99666.13;5051175;28;20033;-71
2023/12/13 07:24:27;;;;;;;0.30;0.30;;;;;;;18.61;53.86;99667.69;5067189;28;20060;-69
2023/12/13 07:26:52;;;;;;;0.20;0.20;;;;;;;18.45;54.25;99673.75;5071315;28;20039;-70
2023/12/13 07:29:18;;;;;;;0.30;0.30;;;;;;;18.57;54.34;99665.88;5070412;28;20062;-70
2023/12/13 07:31:43;;;;;;;0.22;0.22;;;;;;;18.53;54.54;99675.75;5070475;28;20186;-70
2023/12/13 07:34:09;;;;;;;0.30;0.30;;;;;;;18.63;54.20;99672.81;5060574;28;20036;-71
2023/12/13 07:36:34;;;;;;;0.30;0.30;;;;;;;18.48;54.81;99679.38;5053480;28;20049;-71
2023/12/13 07:39:00;;;;;;;0.45;0.45;;;;;;;18.71;53.95;99685.69;5058592;28;20033;-70
2023/12/13 07:41:25;;;;;;;0.20;0.20;;;;;;;18.64;54.21;99682.56;5065437;28;20032;-70
2023/12/13 07:43:52;;;;;;;0.22;0.22;;;;;;;18.67;54.38;99673.81;5070005;28;20123;-69
2023/12/13 07:46:17;;;;;;;0.20;0.20;;;;;;;18.84;53.74;99676.66;5070374;28;20040;-69
2023/12/13 07:48:43;;;;;;;0.30;0.30;;;;;;;18.69;54.03;99672.38;5067007;28;20133;-69
2023/12/13 07:51:08;;;;;;;0.40;0.40;;;;;;;18.74;54.11;99679.63;5050554;28;20029;-70
2023/12/13 07:53:34;;;;;;;0.10;0.10;;;;;;;18.70;53.88;99684.06;5048701;28;20436;-71
2023/12/13 07:55:59;;;;;;;0.20;0.20;;;;;;;18.64;54.03;99693.44;5037200;28;20131;-70
2023/12/13 07:58:25;;;;;;;0.20;0.20;;;;;;;18.71;53.93;99700.06;5052930;28;20056;-70
2023/12/13 08:00:50;;;;;;;0.20;0.20;;;;;;;18.76;54.31;99694.53;5071068;28;20019;-70
2023/12/13 08:03:16;;;;;;;0.20;0.20;;;;;;;18.83;53.89;99700.34;5075975;28;20601;-70
2023/12/13 08:05:41;;;;;;;0.20;0.20;;;;;;;18.83;53.74;99699.56;5069962;28;20045;-70
2023/12/13 08:08:06;;;;;;;0.20;0.20;;;;;;;18.88;53.52;99700.25;5069641;28;20043;-70
2023/12/13 08:10:32;;;;;;;0.30;0.30;;;;;;;18.88;53.80;99697.53;5065132;28;20041;-70
2023/12/13 08:12:57;;;;;;;0.20;0.20;;;;;;;18.84;53.95;99693.81;5049977;28;20123;-69
2023/12/13 08:15:22;;;;;;;0.30;0.30;;;;;;;18.74;54.16;99701.38;5054854;28;20128;-71
2023/12/13 08:17:48;;;;;;;0.30;0.30;;;;;;;18.47;55.34;99704.16;5053738;28;20579;-71
2023/12/13 08:20:13;;;;;;;0.17;0.17;;;;;;;18.39;55.31;99697.50;5070487;28;20082;-69
2023/12/13 08:22:39;;;;;;;0.20;0.20;;;;;;;18.39;55.27;99701.03;5061421;28;20041;-70
2023/12/13 08:25:04;;;;;;;0.22;0.22;;;;;;;18.44;55.73;99702.06;5050521;28;20036;-71
2023/12/13 08:27:30;;;;;;;0.35;0.35;;;;;;;18.45;55.59;99706.38;5070191;28;20063;-71
2023/12/13 08:29:55;;;;;;;0.22;0.22;;;;;;;18.42;56.07;99705.88;5063505;28;20048;-70
2023/12/13 08:32:20;;;;;;;0.20;0.20;;;;;;;18.44;55.80;99708.28;5069152;28;20036;-71
2023/12/13 08:34:46;;;;;;;0.47;0.47;;;;;;;18.42;55.63;99714.06;5069710;28;20428;-70
2023/12/13 08:37:12;;;;;;;0.10;0.10;;;;;;;18.29;55.90;99705.88;5057322;28;20124;-71
2023/12/13 08:39:38;;;;;;;0.30;0.30;;;;;;;18.22;56.09;99714.44;5048109;28;20396;-67
2023/12/13 08:42:09;;;;;;;0.30;0.30;;;;;;;18.40;55.85;99709.97;5064134;28;20033;-71
2023/12/13 08:44:34;;;;;;;;;;;;;;;18.81;54.96;99716.19;5062121;28;20039;-70
2023/12/13 08:46:59;;;;;;;0.30;0.30;;;;;;;18.52;55.55;99723.91;5054816;28;20027;-68
2023/12/13 08:49:25;;;;;;;0.25;0.25;;;;;;;18.48;55.81;99719.38;5065969;28;20041;-71
2023/12/13 08:51:51;;;;;;;0.32;0.32;;;;;;;18.49;56.63;99715.56;5047321;28;20053;-70
2023/12/13 08:54:16;;;;;;;0.30;0.30;;;;;;;18.55;56.04;99715.16;5065197;28;20048;-69
2023/12/13 08:56:41;;;;;;;0.30;0.30;;;;;;;18.59;55.76;99718.06;5064524;28;20032;-70
2023/12/13 08:59:07;;;;;;;0.22;0.22;;;;;;;18.66;55.59;99718.44;5067666;28;20044;-70
2023/12/13 09:01:32;;;;;;;0.20;0.20;;;;;;;18.66;55.21;99719.25;5074294;28;20461;-70
2023/12/13 09:03:57;;;;;;;0.28;0.28;;;;;;;18.69;55.60;99728.72;5087831;28;20106;-71
2023/12/13 09:06:24;;;;;;;0.38;0.38;;;;;;;18.57;55.74;99723.81;5068448;28;20043;-69
2023/12/13 09:08:49;;;;;;;0.25;0.25;;;;;;;18.68;55.48;99735.28;5067883;28;20047;-70
2023/12/13 09:11:15;;;;;;;0.28;0.28;;;;;;;18.68;55.41;99733.38;5065729;28;20470;-70
2023/12/13 09:13:40;;;;;;;0.20;0.20;;;;;;;18.98;54.69;99746.31;5064164;28;20144;-70
2023/12/13 09:16:06;;;;;;;0.30;0.30;;;;;;;18.84;54.81;99736.56;5053270;28;20124;-70
2023/12/13 09:18:31;;;;;;;0.30;0.30;;;;;;;18.57;55.71;99740.16;5047869;28;20037;-71
2023/12/13 09:20:57;;;;;;;0.22;0.22;;;;;;;18.62;55.74;99742.75;5048236;28;20052;-69
2023/12/13 09:23:23;;;;;;;0.20;0.20;;;;;;;18.52;56.28;99740.22;5047623;28;20044;-70
2023/12/13 09:25:49;;;;;;;0.10;0.10;;;;;;;18.66;55.83;99746.47;5059883;28;20044;-70
2023/12/13 09:28:15;;;;;;;0.20;0.20;;;;;;;18.61;56.09;99746.59;5068028;28;20451;-70
2023/12/13 09:30:42;;;;;;;0.25;0.25;;;;;;;18.67;55.52;99744.56;5067394;28;20563;-69
2023/12/13 09:33:07;;;;;;;0.30;0.30;;;;;;;18.63;55.73;99757.97;5067310;28;20055;-70
2023/12/13 09:35:32;;;;;;;0.20;0.20;;;;;;;18.57;56.21;99761.91;5063068;28;20037;-70
2023/12/13 09:37:58;;;;;;;0.20;0.20;;;;;;;18.67;55.67;99761.66;5048878;28;20057;-70
2023/12/13 09:40:23;;;;;;;0.20;0.20;;;;;;;18.55;56.02;99758.69;5047375;28;20047;-70
2023/12/13 09:42:49;;;;;;;0.28;0.28;;;;;;;18.54;56.08;99758.97;5051612;28;20108;-69
2023/12/13 09:45:21;;;;;;;0.22;0.22;;;;;;;18.83;55.69;99767.63;5056548;28;20056;-70
2023/12/13 09:47:49;;;;;;;0.28;0.28;;;;;;;18.73;55.50;99763.19;5065310;28;20565;-69
2023/12/13 09:50:15;;;;;;;0.20;0.20;;;;;;;18.55;56.14;99761.41;5063424;28;20512;-70
2023/12/13 09:52:42;;;;;;;0.30;0.30;;;;;;;18.54;56.24;99773.38;5064209;28;20037;-69
2023/12/13 09:55:08;;;;;;;0.20;0.20;;;;;;;18.62;56.21;99771.88;5066967;28;20530;-69
2023/12/13 09:57:34;;;;;;;0.10;0.10;;;;;;;18.64;55.72;99775.09;5067843;28;20476;-70
2023/12/13 09:59:59;;;;;;;0.30;0.30;;;;;;;18.69;55.55;99773.06;5066790;28;20087;-70
2023/12/13 10:02:26;;;;;;;0.40;0.40;;;;;;;18.41;56.25;99775.00;5068198;28;20041;-70
2023/12/13 10:04:52;;;;;;;0.20;0.20;;;;;;;18.62;56.16;99771.88;5061850;28;20124;-71
2023/12/13 10:07:17;;;;;;;0.30;0.30;;;;;;;18.69;55.93;99775.78;5066437;28;20040;-71
2023/12/13 10:09:44;;;;;;;0.22;0.22;;;;;;;18.76;55.91;99786.28;5067002;28;20136;-68
2023/12/13 10:12:12;;;;;;;0.20;0.20;;;;;;;18.84;55.31;99783.66;5067679;28;20039;-70
2023/12/13 10:14:38;;;;;;;0.30;0.30;;;;;;;18.86;55.56;99788.78;5053400;28;20057;-70
2023/12/13 10:17:04;;;;;;;0.20;0.20;;;;;;;18.87;55.67;99787.69;5046883;28;20065;-69
2023/12/13 10:19:30;;;;;;;0.20;0.20;;;;;;;18.80;55.50;99798.16;5047141;28;20057;-70
2023/12/13 10:21:56;;;;;;;0.25;0.25;;;;;;;18.91;55.16;99792.19;5047056;28;20525;-70
2023/12/13 10:24:23;;;;;;;0.30;0.30;;;;;;;18.50;56.73;99798.78;5047295;28;20158;-69
2023/12/13 10:26:50;;;;;;;0.10;0.10;;;;;;;18.56;56.18;99801.09;5047599;28;20041;-70
2023/12/13 10:29:16;;;;;;;0.20;0.20;;;;;;;18.72;55.84;99807.03;5046698;28;20029;-70
2023/12/13 10:31:44;;;;;;;0.30;0.30;;;;;;;18.99;55.46;99804.28;5049109;28;20086;-69
2023/12/13 10:34:10;;;;;;;0.20;0.20;;;;;;;18.72;56.32;99799.69;5047315;28;20047;-69
2023/12/13 10:36:35;;;;;;;0.20;0.20;;;;;;;18.76;55.86;99810.75;5049844;28;20479;-70
2023/12/13 10:39:03;;;;;;;0.30;0.30;;;;;;;18.82;55.92;99806.84;5047653;28;20075;-68
2023/12/13 10:41:30;;;;;;;0.10;0.10;;;;;;;18.78;55.89;99798.47;5047737;28;20087;-70
2023/12/13 10:43:57;;;;;;;0.20;0.20;;;;;;;18.85;56.02;99809.75;5060446;28;20040;-71
2023/12/13 10:46:26;;;;;;;0.30;0.30;;;;;;;19.07;55.07;99807.09;5061597;28;20061;-69
2023/12/13 10:48:52;;;;;;;0.20;0.20;;;;;;;18.70;55.80;99809.25;5062864;28;20025;-68
2023/12/13 10:51:18;;;;;;;0.30;0.30;;;;;;;18.89;55.70;99810.75;5049477;28;20057;-69
2023/12/13 10:53:45;;;;;;;0.25;0.25;;;;;;;18.85;55.96;99809.75;5047037;28;20095;-68
2023/12/13 10:56:11;;;;;;;0.20;0.20;;;;;;;19.03;55.58;99811.53;5047782;28;20130;-70
2023/12/13 10:58:37;;;;;;;0.20;0.20;;;;;;;18.87;56.11;99809.47;5052218;28;20056;-70
2023/12/13 11:01:05;;;;;;;0.20;0.20;;;;;;;18.86;56.06;99811.38;5055189;28;20049;-69
2023/12/13 11:03:42;;;;;;;0.30;0.30;;;;;;;18.98;55.84;99811.66;5071828;28;20463;-71
2023/12/13 11:06:11;;;;;;;0.17;0.17;;;;;;;18.97;55.49;99810.03;5062992;28;20055;-69
2023/12/13 11:08:41;;;;;;;0.20;0.20;;;;;;;19.09;55.59;99818.47;5084102;28;20036;-70
2023/12/13 11:11:10;;;;;;;0.10;0.10;;;;;;;19.00;55.81;99820.31;5091077;28;20036;-71
2023/12/13 11:13:47;;;;;;;0.10;0.10;;;;;;;19.17;55.29;99825.13;5091655;28;20064;-71
2023/12/13 11:16:20;;;;;;;0.10;0.10;;;;;;;18.98;55.70;99827.19;5081228;28;20064;-70
2023/12/13 11:18:47;;;;;;;0.17;0.17;;;;;;;19.05;56.09;99828.38;5079818;28;20031;-70
2023/12/13 11:21:26;;;;;;;0.30;0.30;;;;;;;19.28;55.67;99830.03;5091403;28;20040;-70
2023/12/13 11:23:56;;;;;;;0.20;0.20;;;;;;;19.22;56.00;99825.03;5090931;28;20050;-70
2023/12/13 11:26:22;;;;;;;0.20;0.20;;;;;;;19.34;55.48;99838.13;5080087;28;20068;-70
2023/12/13 11:28:52;;;;;;;0.20;0.20;;;;;;;19.38;55.76;99836.41;5064769;28;20529;-71